sensor_id;sensor_type;location;lat;lon;timestamp;P1;durP1;ratioP1;P2;durP2;ratioP2
16033;SDS011;8121;51.418;6.998;2024-03-08T00:03:22;10.83;;;8.07;;
16033;SDS011;8121;51.418;6.998;2024-03-08T00:08:25;12.37;;;7.40;;
16033;SDS011;8121;51.418;6.998;2024-03-08T00:13:27;12.80;;;8.10;;
16033;SDS011;8121;51.418;6.998;2024-03-08T00:18:28;15.37;;;9.30;;
16033;SDS011;8121;51.418;6.998;2024-03-08T00:23:31;10.37;;;6.97;;
16033;SDS011;8121;51.418;6.998;2024-03-08T00:28:33;16.57;;;10.40;;
16033;SDS011;8121;51.418;6.998;2024-03-08T00:33:35;16.17;;;9.20;;
16033;SDS011;8121;51.418;6.998;2024-03-08T00:38:38;21.83;;;11.37;;
16033;SDS011;8121;51.418;6.998;2024-03-08T00:43:39;16.50;;;9.07;;
16033;SDS011;8121;51.418;6.998;2024-03-08T00:48:41;13.00;;;8.50;;
16033;SDS011;8121;51.418;6.998;2024-03-08T00:53:44;8.60;;;7.00;;
16033;SDS011;8121;51.418;6.998;2024-03-08T00:58:46;15.27;;;10.07;;
16033;SDS011;8121;51.418;6.998;2024-03-08T01:03:48;15.50;;;8.70;;
16033;SDS011;8121;51.418;6.998;2024-03-08T01:08:51;13.73;;;8.13;;
16033;SDS011;8121;51.418;6.998;2024-03-08T01:13:52;12.93;;;9.13;;
16033;SDS011;8121;51.418;6.998;2024-03-08T01:18:54;8.23;;;6.77;;
16033;SDS011;8121;51.418;6.998;2024-03-08T01:23:57;14.10;;;8.53;;
16033;SDS011;8121;51.418;6.998;2024-03-08T01:28:58;19.10;;;10.67;;
16033;SDS011;8121;51.418;6.998;2024-03-08T01:34:00;13.40;;;8.30;;
16033;SDS011;8121;51.418;6.998;2024-03-08T01:39:03;20.67;;;10.73;;
16033;SDS011;8121;51.418;6.998;2024-03-08T01:44:07;17.07;;;7.93;;
16033;SDS011;8121;51.418;6.998;2024-03-08T01:49:09;11.40;;;7.77;;
16033;SDS011;8121;51.418;6.998;2024-03-08T01:54:12;29.00;;;12.23;;
16033;SDS011;8121;51.418;6.998;2024-03-08T01:59:15;20.97;;;11.40;;
16033;SDS011;8121;51.418;6.998;2024-03-08T02:04:16;20.43;;;10.57;;
16033;SDS011;8121;51.418;6.998;2024-03-08T02:09:19;18.43;;;11.20;;
16033;SDS011;8121;51.418;6.998;2024-03-08T02:14:21;20.13;;;10.57;;
16033;SDS011;8121;51.418;6.998;2024-03-08T02:19:22;13.10;;;9.53;;
16033;SDS011;8121;51.418;6.998;2024-03-08T02:24:25;15.20;;;9.60;;
16033;SDS011;8121;51.418;6.998;2024-03-08T02:29:27;17.60;;;10.57;;
16033;SDS011;8121;51.418;6.998;2024-03-08T02:34:29;23.00;;;12.00;;
16033;SDS011;8121;51.418;6.998;2024-03-08T02:39:33;16.07;;;9.60;;
16033;SDS011;8121;51.418;6.998;2024-03-08T02:44:34;17.93;;;9.07;;
16033;SDS011;8121;51.418;6.998;2024-03-08T02:49:36;19.90;;;11.23;;
16033;SDS011;8121;51.418;6.998;2024-03-08T02:54:39;15.10;;;9.33;;
16033;SDS011;8121;51.418;6.998;2024-03-08T02:59:41;17.50;;;9.30;;
16033;SDS011;8121;51.418;6.998;2024-03-08T03:04:42;16.70;;;9.40;;
16033;SDS011;8121;51.418;6.998;2024-03-08T03:09:45;13.10;;;9.13;;
16033;SDS011;8121;51.418;6.998;2024-03-08T03:14:47;9.30;;;6.83;;
16033;SDS011;8121;51.418;6.998;2024-03-08T03:19:48;19.77;;;11.00;;
16033;SDS011;8121;51.418;6.998;2024-03-08T03:24:51;12.13;;;7.53;;
16033;SDS011;8121;51.418;6.998;2024-03-08T03:29:53;13.70;;;8.83;;
16033;SDS011;8121;51.418;6.998;2024-03-08T03:34:55;16.60;;;10.20;;
16033;SDS011;8121;51.418;6.998;2024-03-08T03:39:58;23.40;;;12.90;;
16033;SDS011;8121;51.418;6.998;2024-03-08T03:45:01;20.77;;;12.40;;
16033;SDS011;8121;51.418;6.998;2024-03-08T03:50:04;24.63;;;12.20;;
16033;SDS011;8121;51.418;6.998;2024-03-08T03:55:08;27.20;;;12.30;;
16033;SDS011;8121;51.418;6.998;2024-03-08T04:00:12;22.30;;;12.10;;
16033;SDS011;8121;51.418;6.998;2024-03-08T04:05:14;19.20;;;11.07;;
16033;SDS011;8121;51.418;6.998;2024-03-08T04:10:17;15.93;;;7.67;;
16033;SDS011;8121;51.418;6.998;2024-03-08T04:15:18;13.30;;;9.27;;
16033;SDS011;8121;51.418;6.998;2024-03-08T04:20:20;29.93;;;13.73;;
16033;SDS011;8121;51.418;6.998;2024-03-08T04:25:23;16.40;;;9.00;;
16033;SDS011;8121;51.418;6.998;2024-03-08T04:30:24;22.70;;;12.17;;
16033;SDS011;8121;51.418;6.998;2024-03-08T04:35:28;21.30;;;11.30;;
16033;SDS011;8121;51.418;6.998;2024-03-08T04:40:31;20.40;;;11.47;;
16033;SDS011;8121;51.418;6.998;2024-03-08T04:45:33;12.90;;;9.27;;
16033;SDS011;8121;51.418;6.998;2024-03-08T04:50:35;19.43;;;10.60;;
16033;SDS011;8121;51.418;6.998;2024-03-08T04:55:39;16.40;;;9.90;;
16033;SDS011;8121;51.418;6.998;2024-03-08T05:00:41;26.40;;;11.93;;
16033;SDS011;8121;51.418;6.998;2024-03-08T05:05:42;21.63;;;11.90;;
16033;SDS011;8121;51.418;6.998;2024-03-08T05:10:45;14.90;;;9.90;;
16033;SDS011;8121;51.418;6.998;2024-03-08T05:15:48;14.67;;;10.27;;
16033;SDS011;8121;51.418;6.998;2024-03-08T05:20:50;25.63;;;12.63;;
16033;SDS011;8121;51.418;6.998;2024-03-08T05:25:53;19.60;;;10.63;;
16033;SDS011;8121;51.418;6.998;2024-03-08T05:30:54;21.37;;;11.57;;
16033;SDS011;8121;51.418;6.998;2024-03-08T05:35:57;16.93;;;10.13;;
16033;SDS011;8121;51.418;6.998;2024-03-08T05:41:00;20.80;;;12.00;;
16033;SDS011;8121;51.418;6.998;2024-03-08T05:46:02;21.00;;;12.10;;
16033;SDS011;8121;51.418;6.998;2024-03-08T05:51:04;19.73;;;10.40;;
16033;SDS011;8121;51.418;6.998;2024-03-08T05:56:07;25.20;;;12.63;;
16033;SDS011;8121;51.418;6.998;2024-03-08T06:01:09;28.37;;;14.23;;
16033;SDS011;8121;51.418;6.998;2024-03-08T06:06:12;21.70;;;11.40;;
16033;SDS011;8121;51.418;6.998;2024-03-08T06:11:16;18.10;;;10.50;;
16033;SDS011;8121;51.418;6.998;2024-03-08T06:16:18;30.73;;;13.97;;
16033;SDS011;8121;51.418;6.998;2024-03-08T06:21:20;35.23;;;9.97;;
16033;SDS011;8121;51.418;6.998;2024-03-08T06:26:24;25.07;;;13.53;;
16033;SDS011;8121;51.418;6.998;2024-03-08T06:31:28;19.60;;;11.27;;
16033;SDS011;8121;51.418;6.998;2024-03-08T06:36:29;21.93;;;12.53;;
16033;SDS011;8121;51.418;6.998;2024-03-08T06:41:32;21.57;;;12.23;;
16033;SDS011;8121;51.418;6.998;2024-03-08T06:46:34;22.13;;;12.47;;
16033;SDS011;8121;51.418;6.998;2024-03-08T06:51:36;15.87;;;9.00;;
16033;SDS011;8121;51.418;6.998;2024-03-08T06:56:39;13.37;;;8.17;;
16033;SDS011;8121;51.418;6.998;2024-03-08T07:01:40;19.57;;;11.37;;
16033;SDS011;8121;51.418;6.998;2024-03-08T07:06:41;15.30;;;10.10;;
16033;SDS011;8121;51.418;6.998;2024-03-08T07:11:44;22.30;;;12.90;;
16033;SDS011;8121;51.418;6.998;2024-03-08T07:16:46;17.43;;;10.70;;
16033;SDS011;8121;51.418;6.998;2024-03-08T07:21:48;29.13;;;14.30;;
16033;SDS011;8121;51.418;6.998;2024-03-08T07:26:51;28.40;;;14.43;;
16033;SDS011;8121;51.418;6.998;2024-03-08T07:31:52;30.10;;;14.20;;
16033;SDS011;8121;51.418;6.998;2024-03-08T07:37:07;20.17;;;11.17;;
16033;SDS011;8121;51.418;6.998;2024-03-08T07:42:12;20.23;;;12.17;;
16033;SDS011;8121;51.418;6.998;2024-03-08T07:47:14;33.20;;;16.40;;
16033;SDS011;8121;51.418;6.998;2024-03-08T07:52:17;29.00;;;15.37;;
16033;SDS011;8121;51.418;6.998;2024-03-08T07:57:20;37.03;;;14.17;;
16033;SDS011;8121;51.418;6.998;2024-03-08T08:02:21;32.50;;;15.37;;
16033;SDS011;8121;51.418;6.998;2024-03-08T08:07:23;24.60;;;13.87;;
16033;SDS011;8121;51.418;6.998;2024-03-08T08:12:26;17.30;;;11.50;;
16033;SDS011;8121;51.418;6.998;2024-03-08T08:17:29;18.23;;;9.83;;
16033;SDS011;8121;51.418;6.998;2024-03-08T08:22:31;20.43;;;12.70;;
16033;SDS011;8121;51.418;6.998;2024-03-08T08:27:34;25.17;;;13.93;;
16033;SDS011;8121;51.418;6.998;2024-03-08T08:32:36;21.50;;;12.53;;
16033;SDS011;8121;51.418;6.998;2024-03-08T08:37:39;22.27;;;14.27;;
16033;SDS011;8121;51.418;6.998;2024-03-08T08:42:42;31.03;;;14.13;;
16033;SDS011;8121;51.418;6.998;2024-03-08T08:47:45;27.37;;;15.30;;
16033;SDS011;8121;51.418;6.998;2024-03-08T08:52:47;39.50;;;14.13;;
16033;SDS011;8121;51.418;6.998;2024-03-08T08:57:50;18.50;;;11.10;;
16033;SDS011;8121;51.418;6.998;2024-03-08T09:02:52;29.50;;;15.20;;
16033;SDS011;8121;51.418;6.998;2024-03-08T09:07:55;13.27;;;9.97;;
16033;SDS011;8121;51.418;6.998;2024-03-08T09:12:58;24.67;;;14.07;;
16033;SDS011;8121;51.418;6.998;2024-03-08T09:18:00;25.03;;;11.40;;
16033;SDS011;8121;51.418;6.998;2024-03-08T09:23:02;25.50;;;11.93;;
16033;SDS011;8121;51.418;6.998;2024-03-08T09:28:05;29.87;;;12.30;;
16033;SDS011;8121;51.418;6.998;2024-03-08T09:33:07;22.50;;;12.40;;
16033;SDS011;8121;51.418;6.998;2024-03-08T09:38:09;21.47;;;12.13;;
16033;SDS011;8121;51.418;6.998;2024-03-08T09:43:14;19.97;;;11.73;;
16033;SDS011;8121;51.418;6.998;2024-03-08T09:48:16;32.60;;;15.23;;
16033;SDS011;8121;51.418;6.998;2024-03-08T09:53:19;20.10;;;10.40;;
16033;SDS011;8121;51.418;6.998;2024-03-08T09:58:23;24.57;;;12.13;;
16033;SDS011;8121;51.418;6.998;2024-03-08T10:03:49;16.50;;;10.10;;
16033;SDS011;8121;51.418;6.998;2024-03-08T10:08:50;23.30;;;13.77;;
16033;SDS011;8121;51.418;6.998;2024-03-08T10:13:54;24.17;;;12.97;;
16033;SDS011;8121;51.418;6.998;2024-03-08T10:18:56;18.00;;;11.23;;
16033;SDS011;8121;51.418;6.998;2024-03-08T10:23:59;16.20;;;9.87;;
16033;SDS011;8121;51.418;6.998;2024-03-08T10:29:02;24.30;;;12.60;;
16033;SDS011;8121;51.418;6.998;2024-03-08T10:34:05;26.60;;;11.73;;
16033;SDS011;8121;51.418;6.998;2024-03-08T10:39:07;24.67;;;12.90;;
16033;SDS011;8121;51.418;6.998;2024-03-08T10:44:23;21.40;;;11.87;;
16033;SDS011;8121;51.418;6.998;2024-03-08T10:49:32;26.20;;;14.20;;
16033;SDS011;8121;51.418;6.998;2024-03-08T10:54:36;19.70;;;10.83;;
16033;SDS011;8121;51.418;6.998;2024-03-08T10:59:40;21.13;;;12.30;;
16033;SDS011;8121;51.418;6.998;2024-03-08T11:04:45;22.17;;;11.20;;
16033;SDS011;8121;51.418;6.998;2024-03-08T11:09:47;19.40;;;11.63;;
16033;SDS011;8121;51.418;6.998;2024-03-08T11:14:51;22.27;;;12.53;;
16033;SDS011;8121;51.418;6.998;2024-03-08T11:19:55;23.00;;;12.10;;
16033;SDS011;8121;51.418;6.998;2024-03-08T11:24:58;20.60;;;12.73;;
16033;SDS011;8121;51.418;6.998;2024-03-08T11:30:03;27.43;;;12.60;;
16033;SDS011;8121;51.418;6.998;2024-03-08T11:35:17;17.47;;;9.33;;
16033;SDS011;8121;51.418;6.998;2024-03-08T11:40:20;25.00;;;12.80;;
16033;SDS011;8121;51.418;6.998;2024-03-08T11:45:24;13.77;;;9.50;;
16033;SDS011;8121;51.418;6.998;2024-03-08T11:50:25;25.63;;;14.43;;
16033;SDS011;8121;51.418;6.998;2024-03-08T11:55:29;24.30;;;13.60;;
16033;SDS011;8121;51.418;6.998;2024-03-08T12:00:31;24.23;;;14.53;;
16033;SDS011;8121;51.418;6.998;2024-03-08T12:05:38;24.93;;;12.80;;
16033;SDS011;8121;51.418;6.998;2024-03-08T12:10:40;24.77;;;13.23;;
16033;SDS011;8121;51.418;6.998;2024-03-08T12:15:43;30.30;;;14.57;;
16033;SDS011;8121;51.418;6.998;2024-03-08T12:20:44;20.70;;;11.57;;
16033;SDS011;8121;51.418;6.998;2024-03-08T12:25:50;18.90;;;11.40;;
16033;SDS011;8121;51.418;6.998;2024-03-08T12:30:52;17.33;;;9.77;;
16033;SDS011;8121;51.418;6.998;2024-03-08T12:35:56;13.43;;;8.63;;
16033;SDS011;8121;51.418;6.998;2024-03-08T12:40:58;14.97;;;9.00;;
16033;SDS011;8121;51.418;6.998;2024-03-08T12:46:01;13.03;;;6.63;;
16033;SDS011;8121;51.418;6.998;2024-03-08T12:51:05;12.07;;;7.60;;
16033;SDS011;8121;51.418;6.998;2024-03-08T12:56:07;15.73;;;7.97;;
16033;SDS011;8121;51.418;6.998;2024-03-08T13:01:10;6.97;;;5.03;;
16033;SDS011;8121;51.418;6.998;2024-03-08T13:06:12;8.33;;;4.97;;
16033;SDS011;8121;51.418;6.998;2024-03-08T13:11:13;14.40;;;6.67;;
16033;SDS011;8121;51.418;6.998;2024-03-08T13:16:16;8.13;;;5.40;;
16033;SDS011;8121;51.418;6.998;2024-03-08T13:21:19;7.30;;;4.90;;
16033;SDS011;8121;51.418;6.998;2024-03-08T13:26:24;9.00;;;5.77;;
16033;SDS011;8121;51.418;6.998;2024-03-08T13:31:31;11.70;;;5.20;;
16033;SDS011;8121;51.418;6.998;2024-03-08T13:36:36;9.63;;;5.07;;
16033;SDS011;8121;51.418;6.998;2024-03-08T13:41:43;10.93;;;6.07;;
16033;SDS011;8121;51.418;6.998;2024-03-08T13:46:47;3.73;;;3.47;;
16033;SDS011;8121;51.418;6.998;2024-03-08T13:51:51;7.63;;;4.70;;
16033;SDS011;8121;51.418;6.998;2024-03-08T13:56:54;6.83;;;5.60;;
16033;SDS011;8121;51.418;6.998;2024-03-08T14:01:57;8.43;;;5.90;;
16033;SDS011;8121;51.418;6.998;2024-03-08T14:06:59;10.60;;;5.80;;
16033;SDS011;8121;51.418;6.998;2024-03-08T14:12:03;12.23;;;6.47;;
16033;SDS011;8121;51.418;6.998;2024-03-08T14:17:08;12.73;;;6.17;;
16033;SDS011;8121;51.418;6.998;2024-03-08T14:22:11;9.47;;;5.80;;
16033;SDS011;8121;51.418;6.998;2024-03-08T14:27:14;8.33;;;5.80;;
16033;SDS011;8121;51.418;6.998;2024-03-08T14:32:19;8.10;;;4.20;;
16033;SDS011;8121;51.418;6.998;2024-03-08T14:37:23;8.33;;;4.90;;
16033;SDS011;8121;51.418;6.998;2024-03-08T14:42:28;7.13;;;5.00;;
16033;SDS011;8121;51.418;6.998;2024-03-08T14:47:31;8.17;;;5.23;;
16033;SDS011;8121;51.418;6.998;2024-03-08T14:52:34;6.17;;;4.90;;
16033;SDS011;8121;51.418;6.998;2024-03-08T14:57:36;5.47;;;4.20;;
16033;SDS011;8121;51.418;6.998;2024-03-08T15:02:40;12.67;;;6.30;;
16033;SDS011;8121;51.418;6.998;2024-03-08T15:07:42;10.07;;;6.57;;
16033;SDS011;8121;51.418;6.998;2024-03-08T15:12:44;10.80;;;7.37;;
16033;SDS011;8121;51.418;6.998;2024-03-08T15:17:48;11.33;;;7.37;;
16033;SDS011;8121;51.418;6.998;2024-03-08T15:22:50;7.90;;;5.90;;
16033;SDS011;8121;51.418;6.998;2024-03-08T15:27:54;14.03;;;7.93;;
16033;SDS011;8121;51.418;6.998;2024-03-08T15:32:59;12.50;;;7.10;;
16033;SDS011;8121;51.418;6.998;2024-03-08T15:38:03;12.43;;;6.53;;
16033;SDS011;8121;51.418;6.998;2024-03-08T15:43:05;12.10;;;6.93;;
16033;SDS011;8121;51.418;6.998;2024-03-08T15:48:07;13.07;;;6.37;;
16033;SDS011;8121;51.418;6.998;2024-03-08T15:53:10;12.50;;;6.87;;
16033;SDS011;8121;51.418;6.998;2024-03-08T15:58:12;12.03;;;7.40;;
16033;SDS011;8121;51.418;6.998;2024-03-08T16:03:16;20.00;;;8.07;;
16033;SDS011;8121;51.418;6.998;2024-03-08T16:08:18;13.17;;;8.33;;
16033;SDS011;8121;51.418;6.998;2024-03-08T16:13:20;10.70;;;6.70;;
16033;SDS011;8121;51.418;6.998;2024-03-08T16:18:24;9.23;;;6.40;;
16033;SDS011;8121;51.418;6.998;2024-03-08T16:23:25;10.43;;;7.20;;
16033;SDS011;8121;51.418;6.998;2024-03-08T16:28:27;12.37;;;7.50;;
16033;SDS011;8121;51.418;6.998;2024-03-08T16:33:39;14.50;;;7.67;;
16033;SDS011;8121;51.418;6.998;2024-03-08T16:38:41;11.50;;;7.90;;
16033;SDS011;8121;51.418;6.998;2024-03-08T16:43:44;7.07;;;5.70;;
16033;SDS011;8121;51.418;6.998;2024-03-08T16:48:47;11.00;;;7.30;;
16033;SDS011;8121;51.418;6.998;2024-03-08T16:53:49;10.67;;;7.00;;
16033;SDS011;8121;51.418;6.998;2024-03-08T16:58:50;8.77;;;6.43;;
16033;SDS011;8121;51.418;6.998;2024-03-08T17:03:53;9.73;;;6.03;;
16033;SDS011;8121;51.418;6.998;2024-03-08T17:08:55;11.10;;;7.50;;
16033;SDS011;8121;51.418;6.998;2024-03-08T17:13:56;10.07;;;6.03;;
16033;SDS011;8121;51.418;6.998;2024-03-08T17:19:00;9.13;;;6.53;;
16033;SDS011;8121;51.418;6.998;2024-03-08T17:24:02;15.43;;;9.03;;
16033;SDS011;8121;51.418;6.998;2024-03-08T17:29:04;12.23;;;7.07;;
16033;SDS011;8121;51.418;6.998;2024-03-08T17:34:09;7.07;;;4.97;;
16033;SDS011;8121;51.418;6.998;2024-03-08T17:39:10;17.50;;;7.90;;
16033;SDS011;8121;51.418;6.998;2024-03-08T17:44:18;10.77;;;6.53;;
16033;SDS011;8121;51.418;6.998;2024-03-08T17:49:21;14.93;;;7.17;;
16033;SDS011;8121;51.418;6.998;2024-03-08T17:54:22;12.73;;;6.87;;
16033;SDS011;8121;51.418;6.998;2024-03-08T17:59:24;8.23;;;5.03;;
16033;SDS011;8121;51.418;6.998;2024-03-08T18:04:27;11.30;;;5.67;;
16033;SDS011;8121;51.418;6.998;2024-03-08T18:09:28;8.37;;;4.83;;
16033;SDS011;8121;51.418;6.998;2024-03-08T18:14:30;13.23;;;5.40;;
16033;SDS011;8121;51.418;6.998;2024-03-08T18:19:33;14.30;;;7.37;;
16033;SDS011;8121;51.418;6.998;2024-03-08T18:24:36;11.40;;;6.80;;
16033;SDS011;8121;51.418;6.998;2024-03-08T18:29:37;14.23;;;7.83;;
16033;SDS011;8121;51.418;6.998;2024-03-08T18:34:41;7.53;;;5.33;;
16033;SDS011;8121;51.418;6.998;2024-03-08T18:39:44;10.27;;;5.50;;
16033;SDS011;8121;51.418;6.998;2024-03-08T18:44:46;8.23;;;5.60;;
16033;SDS011;8121;51.418;6.998;2024-03-08T18:49:48;13.30;;;5.80;;
16033;SDS011;8121;51.418;6.998;2024-03-08T18:54:50;7.47;;;4.80;;
16033;SDS011;8121;51.418;6.998;2024-03-08T18:59:54;10.17;;;5.03;;
16033;SDS011;8121;51.418;6.998;2024-03-08T19:04:57;12.63;;;5.77;;
16033;SDS011;8121;51.418;6.998;2024-03-08T19:09:58;7.70;;;5.53;;
16033;SDS011;8121;51.418;6.998;2024-03-08T19:15:00;9.37;;;6.10;;
16033;SDS011;8121;51.418;6.998;2024-03-08T19:20:10;6.67;;;4.47;;
16033;SDS011;8121;51.418;6.998;2024-03-08T19:25:16;14.30;;;8.50;;
16033;SDS011;8121;51.418;6.998;2024-03-08T19:30:18;11.63;;;5.90;;
16033;SDS011;8121;51.418;6.998;2024-03-08T19:35:28;17.10;;;8.90;;
16033;SDS011;8121;51.418;6.998;2024-03-08T19:40:31;17.93;;;10.00;;
16033;SDS011;8121;51.418;6.998;2024-03-08T19:45:33;14.13;;;7.83;;
16033;SDS011;8121;51.418;6.998;2024-03-08T19:50:37;17.50;;;9.47;;
16033;SDS011;8121;51.418;6.998;2024-03-08T19:55:41;15.33;;;8.97;;
16033;SDS011;8121;51.418;6.998;2024-03-08T20:00:44;17.13;;;8.30;;
16033;SDS011;8121;51.418;6.998;2024-03-08T20:05:49;14.60;;;9.40;;
16033;SDS011;8121;51.418;6.998;2024-03-08T20:10:53;19.00;;;10.77;;
16033;SDS011;8121;51.418;6.998;2024-03-08T20:15:56;18.83;;;9.30;;
16033;SDS011;8121;51.418;6.998;2024-03-08T20:20:59;16.13;;;8.93;;
16033;SDS011;8121;51.418;6.998;2024-03-08T20:26:01;16.00;;;9.47;;
16033;SDS011;8121;51.418;6.998;2024-03-08T20:31:10;19.47;;;9.27;;
16033;SDS011;8121;51.418;6.998;2024-03-08T20:36:14;16.73;;;9.57;;
16033;SDS011;8121;51.418;6.998;2024-03-08T20:41:17;25.60;;;12.70;;
16033;SDS011;8121;51.418;6.998;2024-03-08T20:46:18;16.37;;;9.30;;
16033;SDS011;8121;51.418;6.998;2024-03-08T20:51:21;29.77;;;13.83;;
16033;SDS011;8121;51.418;6.998;2024-03-08T20:56:23;30.87;;;15.50;;
16033;SDS011;8121;51.418;6.998;2024-03-08T21:01:25;24.53;;;13.23;;
16033;SDS011;8121;51.418;6.998;2024-03-08T21:06:32;35.53;;;16.30;;
16033;SDS011;8121;51.418;6.998;2024-03-08T21:11:34;28.20;;;14.20;;
16033;SDS011;8121;51.418;6.998;2024-03-08T21:16:36;20.87;;;11.60;;
16033;SDS011;8121;51.418;6.998;2024-03-08T21:21:39;20.90;;;10.97;;
16033;SDS011;8121;51.418;6.998;2024-03-08T21:26:41;22.87;;;12.23;;
16033;SDS011;8121;51.418;6.998;2024-03-08T21:31:42;26.03;;;12.70;;
16033;SDS011;8121;51.418;6.998;2024-03-08T21:36:45;21.80;;;11.40;;
16033;SDS011;8121;51.418;6.998;2024-03-08T21:41:46;20.50;;;10.67;;
16033;SDS011;8121;51.418;6.998;2024-03-08T21:46:48;17.23;;;9.13;;
16033;SDS011;8121;51.418;6.998;2024-03-08T21:51:51;13.33;;;7.63;;
16033;SDS011;8121;51.418;6.998;2024-03-08T21:56:52;21.67;;;12.30;;
16033;SDS011;8121;51.418;6.998;2024-03-08T22:01:54;18.53;;;10.20;;
16033;SDS011;8121;51.418;6.998;2024-03-08T22:06:57;19.77;;;10.20;;
16033;SDS011;8121;51.418;6.998;2024-03-08T22:11:58;18.70;;;10.03;;
16033;SDS011;8121;51.418;6.998;2024-03-08T22:17:03;17.90;;;10.27;;
16033;SDS011;8121;51.418;6.998;2024-03-08T22:22:06;25.97;;;14.30;;
16033;SDS011;8121;51.418;6.998;2024-03-08T22:27:08;23.73;;;11.00;;
16033;SDS011;8121;51.418;6.998;2024-03-08T22:32:10;17.57;;;8.90;;
16033;SDS011;8121;51.418;6.998;2024-03-08T22:37:13;18.73;;;9.60;;
16033;SDS011;8121;51.418;6.998;2024-03-08T22:42:15;25.87;;;11.77;;
16033;SDS011;8121;51.418;6.998;2024-03-08T22:47:16;34.27;;;17.10;;
16033;SDS011;8121;51.418;6.998;2024-03-08T22:52:19;18.40;;;11.37;;
16033;SDS011;8121;51.418;6.998;2024-03-08T22:57:21;20.23;;;11.40;;
16033;SDS011;8121;51.418;6.998;2024-03-08T23:02:22;20.93;;;11.60;;
16033;SDS011;8121;51.418;6.998;2024-03-08T23:07:25;36.73;;;16.53;;
16033;SDS011;8121;51.418;6.998;2024-03-08T23:12:27;32.57;;;15.23;;
16033;SDS011;8121;51.418;6.998;2024-03-08T23:17:29;29.60;;;15.10;;
16033;SDS011;8121;51.418;6.998;2024-03-08T23:22:32;31.00;;;15.87;;
16033;SDS011;8121;51.418;6.998;2024-03-08T23:27:33;31.07;;;13.50;;
16033;SDS011;8121;51.418;6.998;2024-03-08T23:32:35;24.57;;;12.60;;
16033;SDS011;8121;51.418;6.998;2024-03-08T23:37:37;29.83;;;16.37;;
16033;SDS011;8121;51.418;6.998;2024-03-08T23:42:43;28.70;;;14.17;;
16033;SDS011;8121;51.418;6.998;2024-03-08T23:47:45;33.23;;;15.10;;
16033;SDS011;8121;51.418;6.998;2024-03-08T23:52:48;31.43;;;14.27;;
16033;SDS011;8121;51.418;6.998;2024-03-08T23:57:50;32.63;;;15.23;;
